Terminal Aerodrome Forecast
Issued by NWS

Home | Current Version | Previous Version | Text Only | Print | Product List | Glossary On
Versions: 1 2 3 4 5 6 7 8 9 10 11 12
000
FTUS45 KTFX 220524
TAFCTB
TAF
KCTB 220524Z 2206/2306 VRB06KT P6SM FEW030 BKN070
     FM221700 VRB06KT P6SM SCT010 BKN030
     FM230100 VRB06KT 3SM -SN BR SCT005 BKN025=

USA.gov is the U.S. government's official web portal to all federal, state and local government web resources and services.